Current Weather

Curtin

Curtin, Australia (YCIN)

Report from: Sunday, February 5, 2023 5:00 AM UTC
Current time: Sunday, February 5, 2023 5:30 AM UTC

Nearby weather
Weather history
Weather forecast

Temperature36.0°C (96.8°F)
Heat index38.2°C (100.7°F)
Dew point19.0°C (66.2°F)
Winds 5 kts (2.6 m/s, 5.8 mph) Vrb
Winds variableWinds variable from North-Northeast (20°) to Southeast (140°)
Visibility6.2 mi. (10 km)
Clouds Scattered clouds 10,500 ft. (3,200 m)
Altimeter29.62 in.Hg (1003 mB)
Relative humidity37 %
Density altitude3,020 ft. (921 m)
Remarks Fully automated report
Flight conditions Visual Meteorological Conditions
Raw dataYCIN 050500Z AUTO 07005KT 020V140 9999 // SCT105 36/19 Q1003
An unhandled exception has occurred. See browser dev tools for details. Reload 🗙